Asbury, Missouri
Current Conditions -  °F | °C
As of 1:53 PM on Tuesday 21 Oct 2014 (Local Time) from KJLN Reporting Station
Clear Clear  
Wind Chill: 74°   Ceiling: Unl
Heat Index: 74°   Visibility: 10mi
Dew Point: 48°   Wind: 0mph
Humidity: 40%   Direction: NA
Pressure: 30.1"   Gusts: NA
Location:  37.27°N, 94.61°W
Report Text: KJLN 211853Z 00000KT 10SM CLR 23/09 A3010 RMK AO2 SLP187 T02330089
Loading
Personal Weather Stations






























Interactive Weather Map
Tropical Storm Tracking
New forecast layout! Learn more

10-Day Weather Forecast

Advertisements
Track Severe Weather on mobile